Aruba, Aruba

12:55 AM AST on April 18, 2015 (GMT -0400)
Oranjestad-Reina Beatrix International | | Change Station
CLOSE
Current Station
Airport
Location: Aruba,
Elevation: 59 ft
Nearby Weather Stations

Elev 59 ft 12.50 °N, 70.02 °W | Updated 55 minutes ago

Scattered Clouds
Scattered Clouds
81 °F
Feels Like 86 °F
N
17
Wind Variable Wind from East

Today
High -- | Low -- °F
--% Chance of Precip.
Yesterday
High -- | Low -- °F
Precip. -- in
6:26 AM 6:52 PM
Waning Crescent, 0% visible
Pressure 29.92 in
Visibility 6.2 miles
Clouds Scattered Clouds 1900 ft
Heat Index 86 °F
Dew Point 75 °F
Humidity 84%
Rainfall 0.00 in
Snow Depth Not available.
UV 0 out of 12
Pollen Not available.
Air Quality Not available.
Flu Activity Not available.
METAR TNCA 180400Z 09015KT 9999 SCT019 27/24 Q1013 A2994 NOSIG

More Conditions Fewer Conditions

Pressure 29.92 in
Visibility 6.2 miles
Clouds Scattered Clouds 1900 ft
Heat Index 86 °F
Dew Point 75 °F
Humidity 84%
Rainfall 0.00 in
Snow Depth Not available.
UV 0 out of 12
Pollen Not available.
Air Quality Not available.
Flu Activity Not available.
METAR TNCA 180400Z 09015KT 9999 SCT019 27/24 Q1013 A2994 NOSIG

More Conditions Fewer Conditions

10-Day Weather Forecast

Almanac

Astronomy

Apr. 18, 2015 Rise Set
Actual Time
Civil Twilight
Nautical Twilight
Astronomical Twilight
Moon
Length of Visible Light
Length of Day
Tomorrow will be .
, % of the Moon is Illuminated

Today's Extremes

Country Highs Country Lows

Community

WunderPhotos

Upload Photos

1,814,342 photos uploaded!

WunderBlogs® & News

Nearby

Air Quality

  Air Quality AQ Index Pollutant
Not available.

Snow Depth

Station Depth Elevation

Earthquake Activity

City Distance Mag. Time & Date
Minimum magnitude displayed is 2.5.

Coastal Water Temperatures

Place Temperature

Stations

Nearby Weather Stations

Station Location Temp. Windchill Dew Point Humidity Wind Precip. Elev Updated Type